sensor_id;sensor_type;location;lat;lon;timestamp;temperature;humidity
12119;DHT22;6123;48.864;9.200;2022-09-28T00:01:20;9.00;99.90
12119;DHT22;6123;48.864;9.200;2022-09-28T00:03:52;8.90;99.90
12119;DHT22;6123;48.864;9.200;2022-09-28T00:06:20;8.90;99.90
12119;DHT22;6123;48.864;9.200;2022-09-28T00:08:46;8.90;99.90
12119;DHT22;6123;48.864;9.200;2022-09-28T00:11:15;9.00;99.90
12119;DHT22;6123;48.864;9.200;2022-09-28T00:13:42;9.00;99.90
12119;DHT22;6123;48.864;9.200;2022-09-28T00:16:14;9.00;99.90
12119;DHT22;6123;48.864;9.200;2022-09-28T00:18:42;9.00;99.90
12119;DHT22;6123;48.864;9.200;2022-09-28T00:21:14;9.00;99.90
12119;DHT22;6123;48.864;9.200;2022-09-28T00:23:41;9.00;99.90
12119;DHT22;6123;48.864;9.200;2022-09-28T00:26:27;9.10;99.90
12119;DHT22;6123;48.864;9.200;2022-09-28T00:28:55;9.10;99.90
12119;DHT22;6123;48.864;9.200;2022-09-28T00:31:23;9.00;99.90
12119;DHT22;6123;48.864;9.200;2022-09-28T00:33:53;9.00;99.90
12119;DHT22;6123;48.864;9.200;2022-09-28T00:36:21;9.00;99.90
12119;DHT22;6123;48.864;9.200;2022-09-28T00:38:47;9.00;99.90
12119;DHT22;6123;48.864;9.200;2022-09-28T00:41:13;9.10;99.90
12119;DHT22;6123;48.864;9.200;2022-09-28T00:43:42;9.10;99.90
12119;DHT22;6123;48.864;9.200;2022-09-28T00:46:25;9.20;99.90
12119;DHT22;6123;48.864;9.200;2022-09-28T00:49:06;9.10;99.90
12119;DHT22;6123;48.864;9.200;2022-09-28T00:51:37;9.10;99.90
12119;DHT22;6123;48.864;9.200;2022-09-28T00:54:06;9.10;99.90
12119;DHT22;6123;48.864;9.200;2022-09-28T00:56:35;9.00;99.90
12119;DHT22;6123;48.864;9.200;2022-09-28T00:59:08;9.20;99.90
12119;DHT22;6123;48.864;9.200;2022-09-28T01:01:33;9.10;99.90
12119;DHT22;6123;48.864;9.200;2022-09-28T01:04:00;9.10;99.90
12119;DHT22;6123;48.864;9.200;2022-09-28T01:06:30;9.10;99.90
12119;DHT22;6123;48.864;9.200;2022-09-28T01:08:59;9.10;99.90
12119;DHT22;6123;48.864;9.200;2022-09-28T01:11:29;9.10;99.90
12119;DHT22;6123;48.864;9.200;2022-09-28T01:13:56;9.20;99.90
12119;DHT22;6123;48.864;9.200;2022-09-28T01:21:51;9.20;99.90
12119;DHT22;6123;48.864;9.200;2022-09-28T01:24:41;9.20;99.90
12119;DHT22;6123;48.864;9.200;2022-09-28T01:30:03;9.30;99.90
12119;DHT22;6123;48.864;9.200;2022-09-28T01:35:08;9.30;99.90
12119;DHT22;6123;48.864;9.200;2022-09-28T01:38:00;9.30;99.90
12119;DHT22;6123;48.864;9.200;2022-09-28T01:40:28;9.30;99.90
12119;DHT22;6123;48.864;9.200;2022-09-28T01:43:19;9.30;99.90
12119;DHT22;6123;48.864;9.200;2022-09-28T01:45:57;9.30;99.90
12119;DHT22;6123;48.864;9.200;2022-09-28T01:48:30;9.30;99.90
12119;DHT22;6123;48.864;9.200;2022-09-28T01:50:59;9.30;99.90
12119;DHT22;6123;48.864;9.200;2022-09-28T01:53:39;9.30;99.90
12119;DHT22;6123;48.864;9.200;2022-09-28T01:56:13;9.40;99.90
12119;DHT22;6123;48.864;9.200;2022-09-28T01:59:01;9.40;99.90
12119;DHT22;6123;48.864;9.200;2022-09-28T02:01:40;9.30;99.90
12119;DHT22;6123;48.864;9.200;2022-09-28T02:04:13;9.40;99.90
12119;DHT22;6123;48.864;9.200;2022-09-28T02:06:47;9.40;99.90
12119;DHT22;6123;48.864;9.200;2022-09-28T02:09:19;9.50;99.90
12119;DHT22;6123;48.864;9.200;2022-09-28T02:11:51;9.60;99.90
12119;DHT22;6123;48.864;9.200;2022-09-28T02:14:19;9.60;99.90
12119;DHT22;6123;48.864;9.200;2022-09-28T02:16:51;9.80;99.90
12119;DHT22;6123;48.864;9.200;2022-09-28T02:19:21;9.80;99.90
12119;DHT22;6123;48.864;9.200;2022-09-28T02:27:12;9.90;99.90
12119;DHT22;6123;48.864;9.200;2022-09-28T02:29:39;9.90;99.90
12119;DHT22;6123;48.864;9.200;2022-09-28T02:32:04;10.00;99.90
12119;DHT22;6123;48.864;9.200;2022-09-28T02:34:30;10.00;99.90
12119;DHT22;6123;48.864;9.200;2022-09-28T02:36:56;10.10;99.90
12119;DHT22;6123;48.864;9.200;2022-09-28T02:39:21;10.10;99.90
12119;DHT22;6123;48.864;9.200;2022-09-28T02:41:54;10.10;99.90
12119;DHT22;6123;48.864;9.200;2022-09-28T03:01:59;10.10;99.90
12119;DHT22;6123;48.864;9.200;2022-09-28T03:04:42;10.10;99.90
12119;DHT22;6123;48.864;9.200;2022-09-28T03:07:31;10.10;99.90
12119;DHT22;6123;48.864;9.200;2022-09-28T03:12:25;10.10;99.90
12119;DHT22;6123;48.864;9.200;2022-09-28T03:15:12;10.10;99.90
12119;DHT22;6123;48.864;9.200;2022-09-28T03:17:41;10.10;99.90
12119;DHT22;6123;48.864;9.200;2022-09-28T03:20:09;10.10;99.90
12119;DHT22;6123;48.864;9.200;2022-09-28T03:22:36;10.20;99.90
12119;DHT22;6123;48.864;9.200;2022-09-28T03:25:05;10.20;99.90
12119;DHT22;6123;48.864;9.200;2022-09-28T03:27:34;10.20;99.90
12119;DHT22;6123;48.864;9.200;2022-09-28T03:29:59;10.20;99.90
12119;DHT22;6123;48.864;9.200;2022-09-28T03:32:27;10.20;99.90
12119;DHT22;6123;48.864;9.200;2022-09-28T03:34:55;10.20;99.90
12119;DHT22;6123;48.864;9.200;2022-09-28T03:37:21;10.20;99.90
12119;DHT22;6123;48.864;9.200;2022-09-28T03:39:47;10.20;99.90
12119;DHT22;6123;48.864;9.200;2022-09-28T03:42:13;10.10;99.90
12119;DHT22;6123;48.864;9.200;2022-09-28T03:44:41;10.00;99.90
12119;DHT22;6123;48.864;9.200;2022-09-28T03:47:06;9.90;99.90
12119;DHT22;6123;48.864;9.200;2022-09-28T03:49:33;9.70;99.90
12119;DHT22;6123;48.864;9.200;2022-09-28T03:51:59;9.70;99.90
12119;DHT22;6123;48.864;9.200;2022-09-28T03:54:24;9.70;99.90
12119;DHT22;6123;48.864;9.200;2022-09-28T03:56:50;9.60;99.90
12119;DHT22;6123;48.864;9.200;2022-09-28T03:59:16;9.60;99.90
12119;DHT22;6123;48.864;9.200;2022-09-28T04:01:42;9.60;99.90
12119;DHT22;6123;48.864;9.200;2022-09-28T04:04:11;9.60;99.90
12119;DHT22;6123;48.864;9.200;2022-09-28T04:06:39;9.60;99.90
12119;DHT22;6123;48.864;9.200;2022-09-28T04:09:05;9.60;99.90
12119;DHT22;6123;48.864;9.200;2022-09-28T04:11:31;9.60;99.90
12119;DHT22;6123;48.864;9.200;2022-09-28T04:13:56;9.60;99.90
12119;DHT22;6123;48.864;9.200;2022-09-28T04:16:22;9.70;99.90
12119;DHT22;6123;48.864;9.200;2022-09-28T04:18:47;9.60;99.90
12119;DHT22;6123;48.864;9.200;2022-09-28T04:21:17;9.50;99.90
12119;DHT22;6123;48.864;9.200;2022-09-28T04:23:44;9.50;99.90
12119;DHT22;6123;48.864;9.200;2022-09-28T04:26:21;9.50;99.90
12119;DHT22;6123;48.864;9.200;2022-09-28T04:28:50;9.50;99.90
12119;DHT22;6123;48.864;9.200;2022-09-28T04:31:43;9.40;99.90
12119;DHT22;6123;48.864;9.200;2022-09-28T04:34:10;9.50;99.90
12119;DHT22;6123;48.864;9.200;2022-09-28T04:36:36;9.50;99.90
12119;DHT22;6123;48.864;9.200;2022-09-28T04:39:03;9.60;99.90
12119;DHT22;6123;48.864;9.200;2022-09-28T04:41:29;9.50;99.90
12119;DHT22;6123;48.864;9.200;2022-09-28T04:43:55;9.50;99.90
12119;DHT22;6123;48.864;9.200;2022-09-28T04:46:23;9.60;99.90
12119;DHT22;6123;48.864;9.200;2022-09-28T04:48:48;9.50;99.90
12119;DHT22;6123;48.864;9.200;2022-09-28T04:51:14;9.40;99.90
12119;DHT22;6123;48.864;9.200;2022-09-28T04:53:44;9.40;99.90
12119;DHT22;6123;48.864;9.200;2022-09-28T04:56:12;9.50;99.90
12119;DHT22;6123;48.864;9.200;2022-09-28T04:58:38;9.40;99.90
12119;DHT22;6123;48.864;9.200;2022-09-28T05:01:09;9.40;99.90
12119;DHT22;6123;48.864;9.200;2022-09-28T05:03:37;9.50;99.90
12119;DHT22;6123;48.864;9.200;2022-09-28T05:06:06;9.50;99.90
12119;DHT22;6123;48.864;9.200;2022-09-28T05:08:32;9.40;99.90
12119;DHT22;6123;48.864;9.200;2022-09-28T05:11:02;9.50;99.90
12119;DHT22;6123;48.864;9.200;2022-09-28T05:13:32;9.40;99.90
12119;DHT22;6123;48.864;9.200;2022-09-28T05:16:00;9.40;99.90
12119;DHT22;6123;48.864;9.200;2022-09-28T05:18:28;9.40;99.90
12119;DHT22;6123;48.864;9.200;2022-09-28T05:20:53;9.30;99.90
12119;DHT22;6123;48.864;9.200;2022-09-28T05:23:21;9.40;99.90
12119;DHT22;6123;48.864;9.200;2022-09-28T05:25:47;9.30;99.90
12119;DHT22;6123;48.864;9.200;2022-09-28T05:28:13;9.30;99.90
12119;DHT22;6123;48.864;9.200;2022-09-28T05:30:38;9.20;99.90
12119;DHT22;6123;48.864;9.200;2022-09-28T05:33:07;9.30;99.90
12119;DHT22;6123;48.864;9.200;2022-09-28T05:35:35;9.20;99.90
12119;DHT22;6123;48.864;9.200;2022-09-28T05:38:04;9.30;99.90
12119;DHT22;6123;48.864;9.200;2022-09-28T05:40:30;9.30;99.90
12119;DHT22;6123;48.864;9.200;2022-09-28T05:43:00;9.30;99.90
12119;DHT22;6123;48.864;9.200;2022-09-28T05:45:28;9.30;99.90
12119;DHT22;6123;48.864;9.200;2022-09-28T05:47:53;9.20;99.90
12119;DHT22;6123;48.864;9.200;2022-09-28T05:50:19;9.20;99.90
12119;DHT22;6123;48.864;9.200;2022-09-28T05:52:45;9.20;99.90
12119;DHT22;6123;48.864;9.200;2022-09-28T05:55:11;9.30;99.90
12119;DHT22;6123;48.864;9.200;2022-09-28T05:57:38;9.30;99.90
12119;DHT22;6123;48.864;9.200;2022-09-28T06:00:04;9.30;99.90
12119;DHT22;6123;48.864;9.200;2022-09-28T06:02:33;9.30;99.90
12119;DHT22;6123;48.864;9.200;2022-09-28T06:04:59;9.30;99.90
12119;DHT22;6123;48.864;9.200;2022-09-28T06:07:24;9.30;99.90
12119;DHT22;6123;48.864;9.200;2022-09-28T06:09:50;9.40;99.90
12119;DHT22;6123;48.864;9.200;2022-09-28T06:12:15;9.30;99.90
12119;DHT22;6123;48.864;9.200;2022-09-28T06:14:43;9.30;99.90
12119;DHT22;6123;48.864;9.200;2022-09-28T06:17:09;9.30;99.90
12119;DHT22;6123;48.864;9.200;2022-09-28T06:19:35;9.40;99.90
12119;DHT22;6123;48.864;9.200;2022-09-28T06:22:00;9.40;99.90
12119;DHT22;6123;48.864;9.200;2022-09-28T06:24:26;9.40;99.90
12119;DHT22;6123;48.864;9.200;2022-09-28T06:26:52;9.40;99.90
12119;DHT22;6123;48.864;9.200;2022-09-28T06:29:19;9.30;99.90
12119;DHT22;6123;48.864;9.200;2022-09-28T06:31:47;9.40;99.90
12119;DHT22;6123;48.864;9.200;2022-09-28T06:34:13;9.30;99.90
12119;DHT22;6123;48.864;9.200;2022-09-28T06:36:39;9.40;99.90
12119;DHT22;6123;48.864;9.200;2022-09-28T06:39:05;9.30;99.90
12119;DHT22;6123;48.864;9.200;2022-09-28T06:41:31;9.30;99.90
12119;DHT22;6123;48.864;9.200;2022-09-28T06:43:57;9.30;99.90
12119;DHT22;6123;48.864;9.200;2022-09-28T06:46:23;9.30;99.90
12119;DHT22;6123;48.864;9.200;2022-09-28T06:48:49;9.20;99.90
12119;DHT22;6123;48.864;9.200;2022-09-28T06:51:15;9.30;99.90
12119;DHT22;6123;48.864;9.200;2022-09-28T06:53:41;9.30;99.90
12119;DHT22;6123;48.864;9.200;2022-09-28T06:56:09;9.20;99.90
12119;DHT22;6123;48.864;9.200;2022-09-28T06:58:36;9.30;99.90
12119;DHT22;6123;48.864;9.200;2022-09-28T07:01:02;9.30;99.90
12119;DHT22;6123;48.864;9.200;2022-09-28T07:03:28;9.30;99.90
12119;DHT22;6123;48.864;9.200;2022-09-28T07:05:55;9.30;99.90
12119;DHT22;6123;48.864;9.200;2022-09-28T07:08:22;9.40;99.90
12119;DHT22;6123;48.864;9.200;2022-09-28T07:10:52;9.40;99.90
12119;DHT22;6123;48.864;9.200;2022-09-28T07:13:24;9.40;99.90
12119;DHT22;6123;48.864;9.200;2022-09-28T07:15:57;9.50;99.90
12119;DHT22;6123;48.864;9.200;2022-09-28T07:18:26;9.50;99.90
12119;DHT22;6123;48.864;9.200;2022-09-28T07:20:57;9.60;99.90
12119;DHT22;6123;48.864;9.200;2022-09-28T07:23:24;9.60;99.90
12119;DHT22;6123;48.864;9.200;2022-09-28T07:25:54;9.60;99.90
12119;DHT22;6123;48.864;9.200;2022-09-28T07:28:19;9.70;99.90
12119;DHT22;6123;48.864;9.200;2022-09-28T07:30:46;9.70;99.90
12119;DHT22;6123;48.864;9.200;2022-09-28T07:33:15;9.60;99.90
12119;DHT22;6123;48.864;9.200;2022-09-28T07:35:51;9.80;99.90
12119;DHT22;6123;48.864;9.200;2022-09-28T07:38:18;9.80;99.90
12119;DHT22;6123;48.864;9.200;2022-09-28T07:40:44;9.90;99.90
12119;DHT22;6123;48.864;9.200;2022-09-28T07:43:28;9.90;99.90
12119;DHT22;6123;48.864;9.200;2022-09-28T07:45:53;9.90;99.90
12119;DHT22;6123;48.864;9.200;2022-09-28T07:48:20;9.90;99.90
12119;DHT22;6123;48.864;9.200;2022-09-28T07:50:53;10.00;99.90
12119;DHT22;6123;48.864;9.200;2022-09-28T07:53:23;9.90;99.90
12119;DHT22;6123;48.864;9.200;2022-09-28T07:55:53;10.00;99.90
12119;DHT22;6123;48.864;9.200;2022-09-28T07:58:19;10.00;99.90
12119;DHT22;6123;48.864;9.200;2022-09-28T08:00:48;10.00;99.90
12119;DHT22;6123;48.864;9.200;2022-09-28T08:03:15;10.00;99.90
12119;DHT22;6123;48.864;9.200;2022-09-28T08:05:41;10.00;99.90
12119;DHT22;6123;48.864;9.200;2022-09-28T08:08:11;10.00;99.90
12119;DHT22;6123;48.864;9.200;2022-09-28T08:10:37;11.10;99.90
12119;DHT22;6123;48.864;9.200;2022-09-28T08:13:06;10.00;99.90
12119;DHT22;6123;48.864;9.200;2022-09-28T08:15:32;10.00;99.90
12119;DHT22;6123;48.864;9.200;2022-09-28T08:18:02;10.10;99.90
12119;DHT22;6123;48.864;9.200;2022-09-28T08:20:27;10.20;99.90
12119;DHT22;6123;48.864;9.200;2022-09-28T08:23:11;10.20;99.90
12119;DHT22;6123;48.864;9.200;2022-09-28T08:25:39;10.30;99.90
12119;DHT22;6123;48.864;9.200;2022-09-28T08:28:11;10.20;99.90
12119;DHT22;6123;48.864;9.200;2022-09-28T08:30:37;10.20;99.90
12119;DHT22;6123;48.864;9.200;2022-09-28T08:33:03;10.20;99.90
12119;DHT22;6123;48.864;9.200;2022-09-28T08:35:29;10.20;99.90
12119;DHT22;6123;48.864;9.200;2022-09-28T08:37:57;10.10;99.90
12119;DHT22;6123;48.864;9.200;2022-09-28T08:40:24;10.20;99.90
12119;DHT22;6123;48.864;9.200;2022-09-28T08:43:01;10.20;99.90
12119;DHT22;6123;48.864;9.200;2022-09-28T08:45:30;10.20;99.90
12119;DHT22;6123;48.864;9.200;2022-09-28T08:48:15;10.20;99.90
12119;DHT22;6123;48.864;9.200;2022-09-28T08:51:06;10.20;99.90
12119;DHT22;6123;48.864;9.200;2022-09-28T08:56:38;10.40;99.90
12119;DHT22;6123;48.864;9.200;2022-09-28T08:59:26;10.50;99.90
12119;DHT22;6123;48.864;9.200;2022-09-28T09:01:56;10.40;99.90
12119;DHT22;6123;48.864;9.200;2022-09-28T09:04:23;10.50;99.90
12119;DHT22;6123;48.864;9.200;2022-09-28T09:07:08;10.70;99.90
12119;DHT22;6123;48.864;9.200;2022-09-28T09:09:45;10.80;99.90
12119;DHT22;6123;48.864;9.200;2022-09-28T09:12:20;10.60;99.90
12119;DHT22;6123;48.864;9.200;2022-09-28T09:17:35;10.70;99.90
12119;DHT22;6123;48.864;9.200;2022-09-28T09:26:17;10.70;99.90
12119;DHT22;6123;48.864;9.200;2022-09-28T09:29:28;10.80;99.90
12119;DHT22;6123;48.864;9.200;2022-09-28T09:43:19;11.20;99.90
12119;DHT22;6123;48.864;9.200;2022-09-28T09:48:30;11.30;99.90
12119;DHT22;6123;48.864;9.200;2022-09-28T09:53:56;11.10;99.90
12119;DHT22;6123;48.864;9.200;2022-09-28T09:59:06;11.10;99.90
12119;DHT22;6123;48.864;9.200;2022-09-28T10:01:37;11.30;99.90
12119;DHT22;6123;48.864;9.200;2022-09-28T10:04:11;11.50;99.90
12119;DHT22;6123;48.864;9.200;2022-09-28T10:06:40;11.60;99.90
12119;DHT22;6123;48.864;9.200;2022-09-28T10:09:27;11.80;99.90
12119;DHT22;6123;48.864;9.200;2022-09-28T10:11:54;11.80;99.90
12119;DHT22;6123;48.864;9.200;2022-09-28T10:14:22;11.80;99.90
12119;DHT22;6123;48.864;9.200;2022-09-28T10:16:50;11.60;99.90
12119;DHT22;6123;48.864;9.200;2022-09-28T10:19:19;11.60;99.90
12119;DHT22;6123;48.864;9.200;2022-09-28T10:21:50;11.70;99.90
12119;DHT22;6123;48.864;9.200;2022-09-28T10:26:55;11.80;99.90
12119;DHT22;6123;48.864;9.200;2022-09-28T10:29:25;11.80;99.90
12119;DHT22;6123;48.864;9.200;2022-09-28T10:31:52;11.70;99.90
12119;DHT22;6123;48.864;9.200;2022-09-28T10:34:28;11.80;99.90
12119;DHT22;6123;48.864;9.200;2022-09-28T10:37:09;11.90;99.90
12119;DHT22;6123;48.864;9.200;2022-09-28T10:39:50;11.90;99.90
12119;DHT22;6123;48.864;9.200;2022-09-28T10:42:20;11.70;99.90
12119;DHT22;6123;48.864;9.200;2022-09-28T10:47:22;12.00;99.90
12119;DHT22;6123;48.864;9.200;2022-09-28T10:49:50;12.20;99.90
12119;DHT22;6123;48.864;9.200;2022-09-28T10:52:40;12.00;99.90
12119;DHT22;6123;48.864;9.200;2022-09-28T10:55:25;12.10;99.90
12119;DHT22;6123;48.864;9.200;2022-09-28T10:57:51;12.20;99.90
12119;DHT22;6123;48.864;9.200;2022-09-28T11:03:02;12.50;99.90
12119;DHT22;6123;48.864;9.200;2022-09-28T11:05:28;12.30;99.90
12119;DHT22;6123;48.864;9.200;2022-09-28T11:07:58;12.50;99.90
12119;DHT22;6123;48.864;9.200;2022-09-28T11:10:30;12.50;99.90
12119;DHT22;6123;48.864;9.200;2022-09-28T11:12:57;12.40;99.90
12119;DHT22;6123;48.864;9.200;2022-09-28T11:15:42;12.70;99.90
12119;DHT22;6123;48.864;9.200;2022-09-28T11:18:37;12.90;99.90
12119;DHT22;6123;48.864;9.200;2022-09-28T11:21:11;12.30;99.90
12119;DHT22;6123;48.864;9.200;2022-09-28T11:23:38;12.60;99.90
12119;DHT22;6123;48.864;9.200;2022-09-28T11:26:06;12.60;99.90
12119;DHT22;6123;48.864;9.200;2022-09-28T11:28:38;12.60;99.90
12119;DHT22;6123;48.864;9.200;2022-09-28T11:31:06;13.00;99.90
12119;DHT22;6123;48.864;9.200;2022-09-28T11:33:40;13.10;99.90
12119;DHT22;6123;48.864;9.200;2022-09-28T11:44:45;13.50;99.90
12119;DHT22;6123;48.864;9.200;2022-09-28T11:50:30;13.40;99.90
12119;DHT22;6123;48.864;9.200;2022-09-28T11:53:41;13.30;99.90
12119;DHT22;6123;48.864;9.200;2022-09-28T11:58:54;13.30;99.90
12119;DHT22;6123;48.864;9.200;2022-09-28T12:01:56;13.30;99.90
12119;DHT22;6123;48.864;9.200;2022-09-28T12:04:25;13.30;99.90
12119;DHT22;6123;48.864;9.200;2022-09-28T12:07:45;13.50;99.90
12119;DHT22;6123;48.864;9.200;2022-09-28T12:10:17;13.40;99.90
12119;DHT22;6123;48.864;9.200;2022-09-28T12:12:55;13.40;99.90
12119;DHT22;6123;48.864;9.200;2022-09-28T12:15:25;13.60;99.90
12119;DHT22;6123;48.864;9.200;2022-09-28T12:18:01;13.60;99.90
12119;DHT22;6123;48.864;9.200;2022-09-28T12:20:33;13.70;99.90
12119;DHT22;6123;48.864;9.200;2022-09-28T12:23:10;13.60;99.90
12119;DHT22;6123;48.864;9.200;2022-09-28T12:25:42;13.60;99.90
12119;DHT22;6123;48.864;9.200;2022-09-28T12:28:38;13.60;99.90
12119;DHT22;6123;48.864;9.200;2022-09-28T12:31:29;13.70;99.90
12119;DHT22;6123;48.864;9.200;2022-09-28T12:33:56;13.50;99.90
12119;DHT22;6123;48.864;9.200;2022-09-28T12:47:31;13.70;99.90
12119;DHT22;6123;48.864;9.200;2022-09-28T12:50:07;13.80;99.90
12119;DHT22;6123;48.864;9.200;2022-09-28T13:01:55;13.50;99.90
12119;DHT22;6123;48.864;9.200;2022-09-28T13:04:47;13.40;99.90
12119;DHT22;6123;48.864;9.200;2022-09-28T13:10:40;13.60;99.90
12119;DHT22;6123;48.864;9.200;2022-09-28T13:18:40;13.60;99.90
12119;DHT22;6123;48.864;9.200;2022-09-28T13:23:55;13.80;99.90
12119;DHT22;6123;48.864;9.200;2022-09-28T13:26:35;13.90;99.90
12119;DHT22;6123;48.864;9.200;2022-09-28T13:29:16;13.80;99.90
12119;DHT22;6123;48.864;9.200;2022-09-28T13:31:52;13.60;99.90
12119;DHT22;6123;48.864;9.200;2022-09-28T13:34:24;13.80;99.90
12119;DHT22;6123;48.864;9.200;2022-09-28T13:42:31;13.90;99.90
12119;DHT22;6123;48.864;9.200;2022-09-28T13:48:14;14.00;99.90
12119;DHT22;6123;48.864;9.200;2022-09-28T13:51:03;14.20;99.90
12119;DHT22;6123;48.864;9.200;2022-09-28T13:58:47;14.20;99.90
12119;DHT22;6123;48.864;9.200;2022-09-28T14:01:19;13.80;99.90
12119;DHT22;6123;48.864;9.200;2022-09-28T14:04:15;13.50;99.90
12119;DHT22;6123;48.864;9.200;2022-09-28T14:06:53;13.80;99.90
12119;DHT22;6123;48.864;9.200;2022-09-28T14:14:59;14.00;99.90
12119;DHT22;6123;48.864;9.200;2022-09-28T14:19:58;14.20;99.90
12119;DHT22;6123;48.864;9.200;2022-09-28T14:30:20;14.20;99.90
12119;DHT22;6123;48.864;9.200;2022-09-28T14:32:58;13.80;99.90
12119;DHT22;6123;48.864;9.200;2022-09-28T14:35:29;13.80;99.90
12119;DHT22;6123;48.864;9.200;2022-09-28T14:38:18;13.70;99.90
12119;DHT22;6123;48.864;9.200;2022-09-28T15:02:01;13.60;99.90
12119;DHT22;6123;48.864;9.200;2022-09-28T15:04:33;13.70;99.90
12119;DHT22;6123;48.864;9.200;2022-09-28T15:07:03;13.60;99.90
12119;DHT22;6123;48.864;9.200;2022-09-28T15:09:36;13.70;99.90
12119;DHT22;6123;48.864;9.200;2022-09-28T15:17:26;13.80;99.90
12119;DHT22;6123;48.864;9.200;2022-09-28T15:22:44;14.00;99.90
12119;DHT22;6123;48.864;9.200;2022-09-28T15:25:19;14.10;99.90
12119;DHT22;6123;48.864;9.200;2022-09-28T15:27:51;14.20;99.90
12119;DHT22;6123;48.864;9.200;2022-09-28T15:30:28;14.40;99.90
12119;DHT22;6123;48.864;9.200;2022-09-28T15:32:57;14.50;99.90
12119;DHT22;6123;48.864;9.200;2022-09-28T15:36:03;14.60;99.90
12119;DHT22;6123;48.864;9.200;2022-09-28T15:38:30;14.80;99.90
12119;DHT22;6123;48.864;9.200;2022-09-28T15:41:03;14.20;99.90
12119;DHT22;6123;48.864;9.200;2022-09-28T15:43:31;14.30;99.90
12119;DHT22;6123;48.864;9.200;2022-09-28T15:46:21;14.40;99.90
12119;DHT22;6123;48.864;9.200;2022-09-28T15:51:19;14.50;99.90
12119;DHT22;6123;48.864;9.200;2022-09-28T15:53:58;14.40;99.90
12119;DHT22;6123;48.864;9.200;2022-09-28T15:56:25;14.30;99.90
12119;DHT22;6123;48.864;9.200;2022-09-28T15:59:21;14.30;99.90
12119;DHT22;6123;48.864;9.200;2022-09-28T16:02:10;14.40;99.90
12119;DHT22;6123;48.864;9.200;2022-09-28T16:05:27;14.20;99.90
12119;DHT22;6123;48.864;9.200;2022-09-28T16:07:54;13.90;99.90
12119;DHT22;6123;48.864;9.200;2022-09-28T16:12:48;13.90;99.90
12119;DHT22;6123;48.864;9.200;2022-09-28T16:15:33;14.10;99.90
12119;DHT22;6123;48.864;9.200;2022-09-28T16:18:02;14.40;99.90
12119;DHT22;6123;48.864;9.200;2022-09-28T16:20:34;14.80;99.90
12119;DHT22;6123;48.864;9.200;2022-09-28T16:23:26;14.50;99.90
12119;DHT22;6123;48.864;9.200;2022-09-28T16:33:58;14.10;99.90
12119;DHT22;6123;48.864;9.200;2022-09-28T16:36:28;14.00;99.90
12119;DHT22;6123;48.864;9.200;2022-09-28T16:39:02;13.80;99.90
12119;DHT22;6123;48.864;9.200;2022-09-28T16:41:28;13.60;99.90
12119;DHT22;6123;48.864;9.200;2022-09-28T16:43:58;13.60;99.90
12119;DHT22;6123;48.864;9.200;2022-09-28T16:46:35;13.50;99.90
12119;DHT22;6123;48.864;9.200;2022-09-28T16:49:02;13.40;99.90
12119;DHT22;6123;48.864;9.200;2022-09-28T16:51:32;13.30;99.90
12119;DHT22;6123;48.864;9.200;2022-09-28T16:54:09;13.30;99.90
12119;DHT22;6123;48.864;9.200;2022-09-28T16:56:54;13.20;99.90
12119;DHT22;6123;48.864;9.200;2022-09-28T16:59:19;13.00;99.90
12119;DHT22;6123;48.864;9.200;2022-09-28T17:01:46;13.00;99.90
12119;DHT22;6123;48.864;9.200;2022-09-28T17:04:12;12.70;99.90
12119;DHT22;6123;48.864;9.200;2022-09-28T17:06:38;12.50;99.90
12119;DHT22;6123;48.864;9.200;2022-09-28T17:09:04;12.50;99.90
12119;DHT22;6123;48.864;9.200;2022-09-28T17:11:34;12.40;99.90
12119;DHT22;6123;48.864;9.200;2022-09-28T17:13:59;12.30;99.90
12119;DHT22;6123;48.864;9.200;2022-09-28T17:16:28;12.10;99.90
12119;DHT22;6123;48.864;9.200;2022-09-28T17:18:56;12.20;99.90
12119;DHT22;6123;48.864;9.200;2022-09-28T17:21:21;12.20;99.90
12119;DHT22;6123;48.864;9.200;2022-09-28T17:23:48;12.20;99.90
12119;DHT22;6123;48.864;9.200;2022-09-28T17:26:28;12.10;99.90
12119;DHT22;6123;48.864;9.200;2022-09-28T17:29:01;12.10;99.90
12119;DHT22;6123;48.864;9.200;2022-09-28T17:31:28;12.00;99.90
12119;DHT22;6123;48.864;9.200;2022-09-28T17:33:54;12.10;99.90
12119;DHT22;6123;48.864;9.200;2022-09-28T17:36:20;12.00;99.90
12119;DHT22;6123;48.864;9.200;2022-09-28T17:38:46;11.80;99.90
12119;DHT22;6123;48.864;9.200;2022-09-28T17:41:18;11.80;99.90
12119;DHT22;6123;48.864;9.200;2022-09-28T17:43:44;11.80;99.90
12119;DHT22;6123;48.864;9.200;2022-09-28T17:46:28;11.80;99.90
12119;DHT22;6123;48.864;9.200;2022-09-28T17:48:55;11.60;99.90
12119;DHT22;6123;48.864;9.200;2022-09-28T17:51:27;11.60;99.90
12119;DHT22;6123;48.864;9.200;2022-09-28T17:53:53;11.50;99.90
12119;DHT22;6123;48.864;9.200;2022-09-28T17:56:20;11.50;99.90
12119;DHT22;6123;48.864;9.200;2022-09-28T17:58:46;11.40;99.90
12119;DHT22;6123;48.864;9.200;2022-09-28T18:01:12;11.50;99.90
12119;DHT22;6123;48.864;9.200;2022-09-28T18:03:40;11.40;99.90
12119;DHT22;6123;48.864;9.200;2022-09-28T18:06:10;11.40;99.90
12119;DHT22;6123;48.864;9.200;2022-09-28T18:08:38;11.30;99.90
12119;DHT22;6123;48.864;9.200;2022-09-28T18:11:04;11.40;99.90
12119;DHT22;6123;48.864;9.200;2022-09-28T18:13:30;11.50;99.90
12119;DHT22;6123;48.864;9.200;2022-09-28T18:15:56;11.40;99.90
12119;DHT22;6123;48.864;9.200;2022-09-28T18:18:23;11.40;99.90
12119;DHT22;6123;48.864;9.200;2022-09-28T18:20:49;11.40;99.90
12119;DHT22;6123;48.864;9.200;2022-09-28T18:23:15;11.30;99.90
12119;DHT22;6123;48.864;9.200;2022-09-28T18:25:42;11.20;99.90
12119;DHT22;6123;48.864;9.200;2022-09-28T18:28:09;11.10;99.90
12119;DHT22;6123;48.864;9.200;2022-09-28T18:30:40;11.10;99.90
12119;DHT22;6123;48.864;9.200;2022-09-28T18:33:10;11.10;99.90
12119;DHT22;6123;48.864;9.200;2022-09-28T18:35:37;11.00;99.90
12119;DHT22;6123;48.864;9.200;2022-09-28T18:38:03;11.00;99.90
12119;DHT22;6123;48.864;9.200;2022-09-28T18:40:33;10.90;99.90
12119;DHT22;6123;48.864;9.200;2022-09-28T18:42:59;10.80;99.90
12119;DHT22;6123;48.864;9.200;2022-09-28T18:45:25;10.90;99.90
12119;DHT22;6123;48.864;9.200;2022-09-28T18:47:51;10.90;99.90
12119;DHT22;6123;48.864;9.200;2022-09-28T18:50:16;10.80;99.90
12119;DHT22;6123;48.864;9.200;2022-09-28T18:52:43;10.80;99.90
12119;DHT22;6123;48.864;9.200;2022-09-28T18:55:10;10.70;99.90
12119;DHT22;6123;48.864;9.200;2022-09-28T18:57:36;10.60;99.90
12119;DHT22;6123;48.864;9.200;2022-09-28T19:00:06;10.50;99.90
12119;DHT22;6123;48.864;9.200;2022-09-28T19:02:35;10.40;99.90
12119;DHT22;6123;48.864;9.200;2022-09-28T19:05:01;10.40;99.90
12119;DHT22;6123;48.864;9.200;2022-09-28T19:07:27;10.40;99.90
12119;DHT22;6123;48.864;9.200;2022-09-28T19:09:52;10.40;99.90
12119;DHT22;6123;48.864;9.200;2022-09-28T19:12:20;10.30;99.90
12119;DHT22;6123;48.864;9.200;2022-09-28T19:14:46;10.30;99.90
12119;DHT22;6123;48.864;9.200;2022-09-28T19:17:14;10.30;99.90
12119;DHT22;6123;48.864;9.200;2022-09-28T19:19:39;10.30;99.90
12119;DHT22;6123;48.864;9.200;2022-09-28T19:22:11;10.10;99.90
12119;DHT22;6123;48.864;9.200;2022-09-28T19:24:36;10.10;99.90
12119;DHT22;6123;48.864;9.200;2022-09-28T19:27:04;10.10;99.90
12119;DHT22;6123;48.864;9.200;2022-09-28T19:29:32;10.10;99.90
12119;DHT22;6123;48.864;9.200;2022-09-28T19:31:58;10.00;99.90